Aérodrome :
LOGIN :

S'inscrire | Disclaimer

   EN    FR    IT 

 










Légende :    VFR   VFR Marginal   IFR   IFR Intensif   IFR Très Intensif
Visi : 
Plafond : 
>= 8 km
>= 3000ft
5 à 8 km
1000 à 3000 ft
1500m à 5 km
500 à 1000 ft
800 à 1500m
200 à 500 ft
< 800m
< 200 ft
Symboles :   Orages  Brouillard  Fortes neiges  Fortes précipitations  Vent > 20 kt
SIGMETs :   Divers  Orages  Givrage  Turbulence  Onde Orograph.  Cendres Volcan.







- Altitude de l'aérodrome : 245 ft
- Code IATA : BIQ
- Voir les cartes d'approche


LFBZ - Biarritz

DERNIER METAR :
  • 181030Z AUTO 06006KT 020V080 9999 FEW050/// BKN088/// OVC140/// ///TCU 18/16 Q1010 TEMPO 30015G25KT 3000 TSRA BKN008 BKN020CB

METARs EXPIRÉS :
  • 181000Z AUTO VRB02KT 9999 -RA FEW039/// BKN056/// BKN072/// ///TCU 18/16 Q1010 TEMPO 30015G25KT 3000 TSRA BKN008 BKN020CB
  • 180930Z AUTO 33004KT 260V050 9999 BKN058/// BKN078/// OVC092/// ///TCU 19/15 Q1010 TEMPO 30015G25KT 3000 TSRA BKN008 BKN020CB
  • 180900Z AUTO VRB02KT 9999 FEW060 OVC092 19/15 Q1010 BECMG 29012KT
  • 180830Z AUTO VRB02KT 9999 BKN054/// BKN068/// OVC080/// ///TCU 19/15 Q1010 BECMG 29012KT BKN030

TAF AMD TAF LFBZ
Valide du 18 à 09h jusqu'au 19 à 06h UTC


180910Z 1809/1906 VRB03KT 9999 BKN080
BECMG 1810/1812 30010KT BKN030
TEMPO 1810/1818 4000 SHRA BKN010 BKN020TCU
PROB40
TEMPO 1811/1815 30015G25KT 3000 TSRA BKN008 BKN020CB
BECMG 1816/1818 VRB03KT
PROB30
TEMPO 1822/1906 -RA BKN012
Pas de NOTAMs connus pour ce terrain.
1 SIGMET publié pour la FIR Bordeaux (LFBB) :
 
Orages noyés dans la masse
LFBB SIGMET 1 VALID 181100/181300 LFPW
LFBB BORDEAUX FIR/UIR EMBD TS OBS AT 1100Z S OF N4245 AND W OF E00145 TOP FL360 MOV NE 5KT NC=



MET'MAP, la Météo Aéronautique d'un coup d'oeil ! - Copyright ORBIFLY Décembre 2007 - Disclaimer

ORBIFLY MET'MAP TEAM :

Programmation & Développement : Alexandra Zaïnal
Conception & Développement : Baudouin d'Aumeries
Co-Programmation & Développement : Marc-Olivier Méhu
Soutien technique & logistique : Manuel Goepfert

Contact : metmap@orbifly.com




SOURCES & CREDITS :

   NOAA